Time;durP1;ratioP1;P1;durP2;ratioP2;P2;SDS_P1;SDS_P2;PMS_P1;PMS_P2;Temp;Humidity;BMP_temperature;BMP_pressure;BME280_temperature;BME280_humidity;BME280_pressure;Samples;Min_cycle;Max_cycle;Signal;HPM_P1;HPM_P2
2022/03/23 00:00:47;;;;;;;15.17;12.80;;;13.70;33.50;;;16.53;29.64;103093.31;5016427;28;20546;-53
2022/03/23 00:03:15;;;;;;;14.57;11.80;;;13.70;34.10;;;16.49;29.53;103092.78;5006539;28;20202;-51
2022/03/23 00:05:44;;;;;;;17.13;12.57;;;13.60;33.10;;;16.44;29.44;103094.22;4996963;28;20196;-51
2022/03/23 00:08:13;;;;;;;15.80;13.57;;;13.60;33.00;;;16.38;29.60;103089.53;4996267;28;20215;-53
2022/03/23 00:10:40;;;;;;;15.07;12.80;;;13.50;33.30;;;16.32;29.52;103095.47;4996658;28;20655;-51
2022/03/23 00:13:08;;;;;;;17.30;13.47;;;13.40;33.30;;;16.26;29.88;103097.75;5004968;28;20199;-49
2022/03/23 00:15:35;;;;;;;17.40;12.83;;;13.40;33.80;;;16.20;29.79;103098.38;5015560;28;20222;-50
2022/03/23 00:18:03;;;;;;;14.87;12.07;;;13.30;33.80;;;16.15;30.24;103090.00;5015586;28;20222;-50
2022/03/23 00:20:31;;;;;;;15.57;12.93;;;13.20;34.00;;;16.10;30.19;103092.28;5015493;28;20223;-51
2022/03/23 00:22:59;;;;;;;17.10;12.73;;;13.20;34.10;;;16.05;30.24;103088.41;5009624;28;20199;-51
2022/03/23 00:25:28;;;;;;;17.67;12.73;;;13.10;34.10;;;15.99;30.10;103094.34;5002661;28;20214;-52
2022/03/23 00:27:56;;;;;;;13.47;11.77;;;13.10;34.20;;;15.93;30.18;103098.44;4995718;28;20216;-52
2022/03/23 00:30:23;;;;;;;14.27;12.37;;;13.00;34.10;;;15.89;30.53;103090.91;4996621;28;20538;-53
2022/03/23 00:32:51;;;;;;;16.90;13.57;;;12.90;34.70;;;15.85;30.69;103098.38;5004226;28;20643;-52
2022/03/23 00:35:18;;;;;;;15.77;12.73;;;12.90;34.80;;;15.84;30.87;103091.38;4995727;28;20236;-53
2022/03/23 01:40:51;;;;;;;15.17;12.87;;;12.40;35.20;;;15.03;31.24;103083.41;4994711;28;20238;-52
2022/03/23 01:43:18;;;;;;;14.67;11.67;;;12.40;35.00;;;15.08;31.09;103086.47;4994684;28;20566;-51
2022/03/23 01:45:46;;;;;;;11.93;10.70;;;12.30;35.00;;;15.12;31.33;103077.25;4994977;28;20188;-52
2022/03/23 01:48:13;;;;;;;13.60;12.13;;;12.30;35.00;;;15.16;31.21;103086.59;4994714;28;20212;-52
2022/03/23 01:50:42;;;;;;;13.97;11.40;;;12.30;35.10;;;15.16;31.13;103089.25;4994886;28;20195;-52
2022/03/23 01:53:09;;;;;;;15.77;14.10;;;12.30;35.00;;;15.15;31.21;103076.94;4997778;28;20260;-51
2022/03/23 01:55:36;;;;;;;17.07;13.47;;;12.30;35.40;;;15.13;31.57;103081.56;4998833;28;20299;-54
2022/03/23 01:58:05;;;;;;;14.63;12.57;;;12.30;35.40;;;15.09;31.01;103073.06;5003083;28;20215;-52
2022/03/23 02:00:33;;;;;;;15.63;13.83;;;12.20;35.20;;;15.06;31.19;103077.81;5014365;28;20195;-50
2022/03/23 02:03:01;;;;;;;16.77;14.03;;;12.20;35.50;;;15.01;31.27;103069.47;5014248;28;20246;-51
2022/03/23 02:05:28;;;;;;;14.03;12.17;;;12.20;35.40;;;14.98;31.26;103075.06;5014058;28;20184;-52
2022/03/23 02:07:56;;;;;;;13.63;12.23;;;12.10;35.20;;;14.91;31.13;103070.34;5010066;28;20211;-52
2022/03/23 02:10:24;;;;;;;14.43;12.33;;;12.00;35.30;;;14.87;31.30;103068.97;5013597;28;20676;-54
2022/03/23 02:12:51;;;;;;;15.47;12.90;;;12.00;35.40;;;14.82;31.56;103068.56;5013919;28;20199;-51
2022/03/23 02:15:21;;;;;;;15.23;12.53;;;11.90;35.90;;;14.78;31.64;103064.53;5013518;28;20209;-52
2022/03/23 02:17:53;;;;;;;19.07;13.23;;;11.90;36.00;;;14.75;31.70;103053.38;5009460;28;20238;-54
2022/03/23 02:20:20;;;;;;;18.20;13.93;;;11.80;36.00;;;14.69;31.91;103059.28;4998196;28;20243;-52
2022/03/23 02:22:50;;;;;;;17.33;13.57;;;11.80;36.20;;;14.64;31.92;103062.31;4997996;28;20271;-50
2022/03/23 02:25:22;;;;;;;17.87;13.67;;;11.70;36.40;;;14.58;31.99;103060.25;4997764;28;20539;-51
2022/03/23 02:27:50;;;;;;;17.03;13.63;;;11.70;36.60;;;14.54;32.11;103061.53;5002717;28;20211;-53
2022/03/23 02:30:18;;;;;;;16.73;13.60;;;11.60;36.70;;;14.52;32.32;103063.50;5017211;28;20503;-52
2022/03/23 02:32:46;;;;;;;16.37;13.60;;;11.60;36.90;;;14.54;32.52;103061.53;5017015;28;20195;-51
2022/03/23 02:35:15;;;;;;;16.00;12.93;;;11.60;37.40;;;14.55;32.48;103060.53;5016833;28;20741;-51
2022/03/23 02:37:42;;;;;;;14.07;12.47;;;11.60;37.30;;;14.57;32.62;103055.94;5015247;28;20230;-52
2022/03/23 02:40:11;;;;;;;15.90;13.63;;;11.60;37.40;;;14.57;32.46;103061.22;5017231;28;20580;-51
2022/03/23 02:42:39;;;;;;;17.47;14.27;;;11.60;37.30;;;14.56;32.50;103054.28;5016942;28;20195;-52
2022/03/23 02:45:12;;;;;;;17.13;14.30;;;11.70;37.50;;;14.56;31.99;103053.44;5016570;28;20237;-53
2022/03/23 02:47:41;;;;;;;17.73;14.40;;;11.70;37.00;;;14.54;32.26;103061.53;5007726;28;20216;-49
2022/03/23 02:50:10;;;;;;;17.40;14.57;;;11.70;36.90;;;14.52;32.34;103057.34;4997386;28;20196;-53
2022/03/23 03:01:52;;;;;;;17.63;13.40;;;11.70;37.00;;;14.50;32.26;103059.31;4997279;28;20279;-51
2022/03/23 03:04:10;;;;;;;16.27;13.90;;;11.40;37.20;;;14.20;32.94;103057.66;4996872;28;20626;-51
2022/03/23 03:06:37;;;;;;;17.67;14.03;;;11.40;37.50;;;14.19;32.69;103056.00;4996321;28;20208;-50
2022/03/23 03:09:05;;;;;;;17.33;15.00;;;11.30;37.20;;;14.17;32.56;103055.28;4996755;28;20203;-51
2022/03/23 03:11:34;;;;;;;16.23;14.23;;;11.30;37.40;;;14.13;32.55;103056.53;4996798;28;20192;-51
2022/03/23 03:14:01;;;;;;;15.93;14.27;;;11.20;37.30;;;14.08;33.07;103062.25;4996628;28;20199;-49
2022/03/23 03:16:28;;;;;;;17.47;14.33;;;11.20;37.80;;;14.05;32.80;103059.03;4995989;28;20225;-52
2022/03/23 03:18:56;;;;;;;16.40;14.67;;;11.10;37.60;;;14.03;32.97;103058.34;5014605;28;20199;-52
2022/03/23 03:21:23;;;;;;;17.13;14.70;;;11.10;37.70;;;14.02;32.75;103059.34;5016381;28;20199;-51
2022/03/23 03:23:51;;;;;;;16.13;12.77;;;11.10;37.60;;;14.00;33.02;103062.09;5016211;28;20200;-52
2022/03/23 03:26:19;;;;;;;16.37;14.33;;;11.10;37.80;;;14.00;32.95;103063.94;5015776;28;20673;-51
2022/03/23 03:28:50;;;;;;;17.73;14.13;;;11.10;38.00;;;14.00;33.06;103063.94;4998875;28;20204;-52
2022/03/23 03:31:17;;;;;;;16.27;13.70;;;11.10;38.10;;;13.97;33.26;103066.88;4998429;28;20689;-51
2022/03/23 03:33:45;;;;;;;18.20;14.23;;;11.00;38.00;;;13.97;33.04;103069.50;5016245;28;20246;-50
2022/03/23 03:36:13;;;;;;;16.63;14.13;;;11.00;38.10;;;13.95;33.57;103063.53;5015600;28;20217;-52
2022/03/23 03:38:43;;;;;;;16.27;13.10;;;11.00;38.80;;;13.94;33.51;103067.97;5000486;28;20223;-53
2022/03/23 03:41:11;;;;;;;18.13;15.23;;;11.00;38.80;;;13.92;33.50;103063.78;4996384;28;20184;-50
2022/03/23 03:43:39;;;;;;;19.07;14.80;;;11.00;38.60;;;13.88;33.28;103067.69;4996521;28;20220;-51
2022/03/23 03:46:10;;;;;;;19.90;16.03;;;10.90;38.30;;;13.83;33.52;103068.13;4995945;28;20200;-53
2022/03/23 03:48:40;;;;;;;15.40;13.13;;;10.90;38.80;;;13.82;33.54;103071.72;5011294;28;20195;-50
2022/03/23 03:51:08;;;;;;;17.50;14.83;;;10.90;38.80;;;13.80;33.67;103068.38;5015963;28;20502;-50
2022/03/23 03:53:37;;;;;;;16.03;14.23;;;10.90;38.90;;;13.79;33.13;103063.22;5015629;28;20206;-50
2022/03/23 03:56:08;;;;;;;15.37;13.73;;;10.90;38.50;;;13.76;33.53;103060.84;5014967;28;20681;-50
2022/03/23 03:58:36;;;;;;;21.57;14.83;;;10.80;38.60;;;13.71;33.76;103065.72;5000475;28;20278;-51
2022/03/23 04:01:04;;;;;;;16.50;14.73;;;10.80;39.00;;;13.67;33.56;103056.41;4995916;28;20207;-51
2022/03/23 04:03:34;;;;;;;16.77;13.53;;;10.70;38.70;;;13.64;33.79;103059.31;4995798;28;20188;-51
2022/03/23 04:06:04;;;;;;;17.53;14.87;;;10.70;38.90;;;13.63;34.14;103062.91;4995926;28;20276;-51
2022/03/23 04:08:32;;;;;;;18.87;14.83;;;10.70;39.10;;;13.63;33.85;103073.50;4996363;28;20219;-51
2022/03/23 04:10:59;;;;;;;17.50;14.20;;;10.70;38.90;;;13.60;33.56;103064.03;4995598;28;20191;-51
2022/03/23 04:13:26;;;;;;;16.40;13.93;;;10.70;39.10;;;13.58;33.88;103072.09;4995733;28;20192;-51
2022/03/23 04:15:53;;;;;;;18.97;14.27;;;10.70;39.10;;;13.58;33.73;103065.97;4995272;28;20299;-50
2022/03/23 04:18:21;;;;;;;18.93;15.33;;;10.60;39.20;;;13.56;33.83;103075.88;5007045;28;20217;-50
2022/03/23 04:20:50;;;;;;;16.77;13.70;;;10.60;39.60;;;13.54;34.27;103068.06;5015361;28;20214;-50
2022/03/23 04:23:17;;;;;;;18.43;14.87;;;10.60;40.30;;;13.57;34.30;103070.44;5015098;28;20298;-51
2022/03/23 04:25:44;;;;;;;20.97;14.73;;;10.70;40.20;;;13.61;34.06;103071.00;5014740;28;20195;-48
2022/03/23 04:28:12;;;;;;;21.13;16.20;;;10.70;39.40;;;13.62;33.99;103077.94;5004049;28;20216;-53
2022/03/23 04:30:40;;;;;;;18.17;14.40;;;10.70;39.30;;;13.63;33.74;103084.09;4995239;28;20275;-51
2022/03/23 04:33:07;;;;;;;18.13;16.00;;;10.70;38.80;;;13.63;33.97;103081.44;5011830;28;20199;-51
2022/03/23 04:35:35;;;;;;;18.47;15.00;;;10.70;39.10;;;13.62;33.94;103077.13;5014732;28;20227;-50
2022/03/23 04:38:04;;;;;;;17.27;14.63;;;10.80;39.40;;;13.61;33.70;103089.53;5004926;28;20299;-49
2022/03/23 04:40:35;;;;;;;18.87;15.50;;;10.80;38.90;;;13.58;33.67;103082.69;4994964;28;20275;-51
2022/03/23 04:43:03;;;;;;;19.77;16.07;;;10.70;38.70;;;13.55;33.46;103087.41;5009905;28;20192;-50
2022/03/23 04:45:30;;;;;;;17.67;15.77;;;10.70;38.60;;;13.51;33.92;103089.50;4995447;28;20192;-49
2022/03/23 04:47:58;;;;;;;20.27;15.23;;;10.60;39.00;;;13.48;34.06;103097.72;5003045;28;20211;-51
2022/03/23 04:50:25;;;;;;;23.43;16.03;;;10.60;39.00;;;13.45;33.99;103097.16;5015187;28;20191;-52
2022/03/23 04:52:53;;;;;;;20.43;15.83;;;10.60;39.00;;;13.40;33.87;103100.22;5015045;28;20187;-52
2022/03/23 04:55:21;;;;;;;17.13;14.70;;;10.60;39.00;;;13.37;34.03;103100.47;5014681;28;20218;-51
2022/03/23 04:57:48;;;;;;;17.70;15.00;;;10.50;39.00;;;13.36;34.14;103097.97;5007138;28;20674;-51
2022/03/23 05:00:20;;;;;;;17.17;14.50;;;10.50;39.20;;;13.35;34.30;103102.41;4995106;28;20199;-50
2022/03/23 05:02:51;;;;;;;18.83;16.33;;;10.50;39.40;;;13.38;34.35;103107.41;5008453;28;20203;-50
2022/03/23 05:05:19;;;;;;;18.00;15.23;;;10.50;39.50;;;13.39;34.47;103111.75;5014670;28;20277;-50
2022/03/23 05:07:46;;;;;;;16.93;14.00;;;10.50;39.60;;;13.40;34.34;103105.50;5007695;28;20718;-50
2022/03/23 05:10:14;;;;;;;16.80;14.93;;;10.50;39.80;;;13.40;34.50;103116.09;4995157;28;20196;-51
2022/03/23 05:12:45;;;;;;;17.80;15.90;;;10.50;39.90;;;13.42;34.45;103111.47;4994654;28;20199;-52
2022/03/23 05:15:14;;;;;;;18.87;14.57;;;10.50;39.80;;;13.47;34.37;103119.00;4994649;28;20705;-52
2022/03/23 05:17:44;;;;;;;17.67;15.10;;;10.60;39.80;;;13.49;34.43;103115.25;4999566;28;20222;-52
2022/03/23 05:20:14;;;;;;;17.13;14.00;;;10.60;39.80;;;13.54;34.23;103118.34;5014637;28;20214;-52
2022/03/23 05:22:42;;;;;;;18.87;16.20;;;10.70;39.80;;;13.54;34.42;103113.06;5014603;28;20194;-49
2022/03/23 05:25:10;;;;;;;18.10;15.63;;;10.70;39.70;;;13.50;34.51;103116.94;5014195;28;20203;-54
2022/03/23 05:27:39;;;;;;;18.50;16.13;;;10.60;39.60;;;13.44;34.57;103122.75;5028498;28;20222;-50
2022/03/23 05:30:11;;;;;;;20.10;16.73;;;10.60;40.00;;;13.35;34.68;103123.56;5013925;28;20195;-52
2022/03/23 05:32:40;;;;;;;18.23;14.47;;;10.50;39.90;;;13.29;34.61;103121.44;5014274;28;20206;-52
2022/03/23 05:35:09;;;;;;;19.73;15.60;;;10.40;39.90;;;13.25;34.80;103121.84;5014087;28;20198;-50
2022/03/23 05:37:37;;;;;;;18.53;15.40;;;10.40;40.30;;;13.20;34.73;103122.25;5013540;28;20211;-53
2022/03/23 05:40:10;;;;;;;17.00;14.57;;;10.30;40.40;;;13.15;35.10;103127.09;5013795;28;20192;-51
2022/03/23 05:42:38;;;;;;;21.90;15.70;;;10.20;40.30;;;13.10;34.76;103124.00;5014102;28;20197;-51
2022/03/23 05:45:08;;;;;;;16.90;14.23;;;10.10;40.40;;;13.04;35.00;103119.22;5013810;28;20187;-51
2022/03/23 05:47:37;;;;;;;18.93;15.67;;;10.10;40.70;;;12.98;35.49;103119.75;5013322;28;20233;-51
2022/03/23 05:50:07;;;;;;;18.10;15.83;;;10.00;41.20;;;12.93;35.47;103121.97;5018736;28;20202;-51
2022/03/23 05:52:34;;;;;;;21.93;16.63;;;10.00;41.40;;;12.90;35.44;103116.94;5016352;28;20191;-50
2022/03/23 05:55:02;;;;;;;19.30;14.87;;;9.90;42.50;;;12.87;35.85;103127.75;5018233;28;20184;-50
2022/03/23 05:57:29;;;;;;;18.17;15.00;;;9.90;42.70;;;12.85;35.80;103129.69;5012154;28;20624;-51
2022/03/23 05:59:57;;;;;;;21.47;15.53;;;9.80;42.50;;;12.84;35.99;103123.56;4998224;28;20214;-52
2022/03/23 06:02:25;;;;;;;19.60;15.63;;;9.80;42.80;;;12.86;35.79;103131.34;5008356;28;20539;-51
2022/03/23 06:04:54;;;;;;;20.43;14.63;;;9.80;42.80;;;12.88;35.57;103129.44;5017609;28;20278;-49
2022/03/23 06:07:21;;;;;;;21.70;16.23;;;9.80;42.80;;;12.90;35.97;103133.63;5013095;28;20270;-51
2022/03/23 06:09:49;;;;;;;18.20;16.27;;;9.90;43.00;;;12.93;35.71;103126.41;4997991;28;20285;-52
2022/03/23 06:12:17;;;;;;;22.10;15.13;;;9.90;43.10;;;12.96;35.76;103126.97;4998111;28;20196;-51
2022/03/23 06:14:45;;;;;;;18.27;15.13;;;9.90;42.90;;;12.99;36.07;103132.00;5000330;28;20655;-51
2022/03/23 06:17:13;;;;;;;19.47;16.07;;;9.90;43.10;;;13.03;35.66;103128.13;4997541;28;20215;-49
2022/03/23 06:19:42;;;;;;;17.00;14.57;;;10.00;42.20;;;13.06;35.94;103127.91;4998670;28;20196;-53
2022/03/23 06:22:10;;;;;;;20.30;16.00;;;10.00;42.00;;;13.10;35.85;103137.22;4998342;28;20235;-51
2022/03/23 06:24:43;;;;;;;18.83;16.27;;;10.00;42.00;;;13.13;36.01;103142.25;4997812;28;20219;-50
2022/03/23 06:27:10;;;;;;;19.33;15.97;;;10.10;42.50;;;13.19;35.87;103138.25;4997935;28;20705;-50
2022/03/23 06:29:38;;;;;;;18.30;15.20;;;10.10;42.20;;;13.25;35.65;103141.22;4998263;28;20188;-50
2022/03/23 06:32:06;;;;;;;17.63;15.40;;;10.20;42.10;;;13.32;35.63;103145.00;5005444;28;20207;-50
2022/03/23 06:34:33;;;;;;;19.17;16.37;;;10.30;42.20;;;13.38;35.29;103144.44;5016843;28;20188;-51
2022/03/23 06:37:02;;;;;;;18.70;15.67;;;10.30;41.90;;;13.44;35.26;103143.94;5016735;28;20227;-52
2022/03/23 06:39:30;;;;;;;19.77;15.90;;;10.40;41.60;;;13.49;35.36;103141.72;5021609;28;20263;-51
2022/03/23 06:41:58;;;;;;;19.00;16.03;;;10.40;41.80;;;13.53;35.28;103140.47;5002622;28;20557;-53
2022/03/23 06:44:25;;;;;;;21.07;16.30;;;10.50;41.60;;;13.61;35.14;103144.25;4998171;28;20196;-55
2022/03/23 06:46:53;;;;;;;18.63;15.47;;;10.50;41.40;;;13.67;34.80;103143.72;4997012;28;20204;-49
2022/03/23 06:49:20;;;;;;;19.23;15.00;;;10.60;41.10;;;13.72;34.59;103139.69;4997931;28;20222;-50
2022/03/23 06:51:47;;;;;;;16.83;14.37;;;10.60;41.10;;;13.79;34.85;103145.25;4997567;28;20549;-50
2022/03/23 06:54:17;;;;;;;21.27;16.60;;;10.70;41.00;;;13.84;34.48;103145.69;4997242;28;20698;-52
2022/03/23 06:56:44;;;;;;;22.50;16.83;;;10.70;40.80;;;13.92;34.55;103146.72;4997073;28;20220;-50
2022/03/23 06:59:11;;;;;;;18.40;15.17;;;10.80;40.90;;;14.02;34.27;103146.72;4997244;28;20275;-51
2022/03/23 07:01:39;;;;;;;18.83;15.87;;;10.90;40.60;;;14.09;33.96;103151.34;5001570;28;20195;-50
2022/03/23 07:04:06;;;;;;;16.27;14.47;;;11.00;40.40;;;14.22;33.91;103156.34;5016275;28;20223;-51
2022/03/23 07:06:33;;;;;;;17.93;15.00;;;11.10;40.00;;;14.41;33.50;103156.38;5006829;28;20222;-51
2022/03/23 07:11:48;;;;;;;16.57;14.57;;;11.40;39.80;;;15.06;32.82;103152.09;4997239;28;20252;-51
2022/03/23 07:14:15;;;;;;;17.47;14.77;;;11.60;39.60;;;15.48;32.33;103158.66;4997262;28;20188;-51
2022/03/23 07:16:43;;;;;;;17.33;15.03;;;11.90;39.50;;;15.99;31.83;103158.94;5006128;28;20233;-50
2022/03/23 07:19:11;;;;;;;17.93;15.13;;;12.20;38.90;;;16.55;31.29;103165.78;5017358;28;20558;-50
2022/03/23 07:21:40;;;;;;;18.67;15.40;;;12.60;38.20;;;17.15;30.39;103159.56;5016130;28;20535;-50
2022/03/23 07:24:08;;;;;;;22.57;17.10;;;13.10;37.60;;;17.77;29.14;103155.72;5016081;28;20194;-51
2022/03/23 07:26:35;;;;;;;18.87;16.30;;;13.50;36.20;;;18.42;28.46;103156.66;5013896;28;20210;-52
2022/03/23 07:29:05;;;;;;;19.20;17.10;;;14.10;35.70;;;19.10;27.77;103158.91;5016021;28;20671;-53
2022/03/23 07:31:33;;;;;;;18.10;15.73;;;14.60;34.90;;;19.81;26.99;103150.81;5015713;28;20191;-53
2022/03/23 07:34:02;;;;;;;16.27;14.57;;;15.20;34.20;;;20.53;26.14;103154.84;5015579;28;20196;-50
2022/03/23 07:36:33;;;;;;;17.07;14.93;;;15.80;33.10;;;21.22;25.03;103159.84;5011365;28;20315;-52
2022/03/23 07:39:01;;;;;;;16.47;13.23;;;16.40;31.90;;;21.90;24.11;103158.66;4996308;28;20195;-50
2022/03/23 07:41:28;;;;;;;16.77;14.90;;;17.00;30.90;;;22.49;23.89;103154.69;4996314;28;20214;-53
2022/03/23 07:43:55;;;;;;;16.60;14.87;;;17.60;30.00;;;23.05;22.74;103166.31;4996284;28;20596;-50
2022/03/23 07:46:25;;;;;;;17.27;15.53;;;18.10;28.90;;;23.52;22.23;103158.31;5004417;28;20198;-52
2022/03/23 07:48:52;;;;;;;19.30;15.43;;;18.60;28.20;;;23.96;20.98;103165.88;5016712;28;20230;-53
2022/03/23 07:51:20;;;;;;;19.50;16.93;;;19.10;26.80;;;24.31;20.39;103158.53;5016710;28;20187;-53
2022/03/23 07:53:47;;;;;;;16.57;14.93;;;19.50;26.00;;;24.66;20.42;103161.84;5016223;28;20206;-55
2022/03/23 07:56:14;;;;;;;17.00;15.43;;;19.90;25.90;;;25.06;20.11;103162.63;5008777;28;20216;-52
2022/03/23 07:58:42;;;;;;;18.00;16.20;;;20.30;25.80;;;25.48;19.09;103160.25;4996203;28;20268;-53
2022/03/23 08:01:09;;;;;;;17.83;14.93;;;20.60;25.00;;;25.87;18.97;103171.88;4996270;28;20199;-52
2022/03/23 08:03:39;;;;;;;18.40;16.27;;;21.00;24.70;;;26.23;18.79;103164.00;5015079;28;20221;-51
2022/03/23 08:06:06;;;;;;;17.47;15.63;;;21.30;24.20;;;26.60;17.87;103167.66;5008127;28;20192;-52
2022/03/23 08:08:33;;;;;;;16.90;15.20;;;21.60;23.60;;;26.93;18.03;103164.66;4998311;28;20694;-53
2022/03/23 08:11:00;;;;;;;17.43;15.70;;;21.90;23.10;;;27.28;17.12;103181.97;5016831;28;20658;-56
2022/03/23 08:13:28;;;;;;;18.27;15.83;;;22.20;22.70;;;27.56;16.47;103174.16;5011930;28;20622;-53
2022/03/23 08:15:55;;;;;;;18.63;16.73;;;22.50;22.20;;;27.90;16.94;103173.47;4994688;28;20227;-55
2022/03/23 08:18:22;;;;;;;19.37;15.10;;;22.80;22.40;;;28.27;16.37;103176.91;4995269;28;20211;-55
2022/03/23 08:20:52;;;;;;;16.43;14.77;;;23.10;21.80;;;28.66;16.80;103161.88;4995547;28;20671;-54
2022/03/23 08:23:19;;;;;;;15.73;14.17;;;23.40;22.00;;;29.05;16.44;103171.19;4995830;28;20200;-57
2022/03/23 08:25:47;;;;;;;16.53;14.93;;;23.70;21.80;;;29.42;15.35;103181.53;4999209;28;20287;-53
2022/03/23 08:28:14;;;;;;;18.13;16.43;;;24.00;20.80;;;29.76;15.39;103170.78;5014383;28;20215;-52
2022/03/23 08:30:43;;;;;;;16.50;15.00;;;24.30;20.90;;;30.11;15.19;103163.28;5014868;28;20222;-53
2022/03/23 08:33:10;;;;;;;15.10;13.70;;;24.60;20.40;;;30.49;14.89;103171.56;5014925;28;20568;-56
2022/03/23 08:35:39;;;;;;;15.40;14.10;;;24.90;20.40;;;30.86;13.79;103165.59;5009430;28;20215;-54
2022/03/23 08:38:08;;;;;;;18.77;13.80;;;25.20;19.80;;;31.17;14.29;103162.19;5004386;28;20227;-54
2022/03/23 08:40:36;;;;;;;23.77;21.40;;;25.40;19.40;;;31.49;13.23;103157.75;5003732;28;20209;-58
2022/03/23 08:43:03;;;;;;;16.50;14.90;;;25.70;18.70;;;31.74;12.40;103155.28;5002347;28;20199;-52
2022/03/23 08:45:31;;;;;;;15.17;13.63;;;25.90;17.30;;;31.89;12.45;103160.88;5000281;28;20237;-54
2022/03/23 08:48:00;;;;;;;14.90;13.70;;;26.10;16.70;;;32.02;12.15;103165.94;5000973;28;20310;-55
2022/03/23 08:50:28;;;;;;;16.03;14.43;;;26.30;17.00;;;32.30;12.53;103161.25;4998630;28;20202;-55
2022/03/23 08:52:56;;;;;;;13.43;12.27;;;26.50;17.30;;;32.58;12.41;103163.69;5000198;28;20213;-61
2022/03/23 08:55:32;;;;;;;15.27;12.77;;;26.80;16.80;;;32.81;12.14;103163.25;5000332;28;20202;-58
2022/03/23 08:57:59;;;;;;;12.63;11.43;;;27.00;16.40;;;32.98;11.55;103163.91;4997780;28;20238;-56
2022/03/23 09:00:27;;;;;;;13.00;11.90;;;27.30;16.70;;;33.22;11.38;103159.69;4996292;28;20225;-56
2022/03/23 09:02:54;;;;;;;18.53;16.80;;;27.50;15.30;;;33.47;11.28;103155.41;4995735;28;20209;-53
2022/03/23 09:05:22;;;;;;;47.10;42.80;;;27.80;15.90;;;33.75;10.99;103163.13;4997847;28;20198;-54
2022/03/23 09:07:50;;;;;;;19.40;17.80;;;28.00;15.40;;;34.07;10.94;103155.53;4995441;28;20216;-50
2022/03/23 09:10:19;;;;;;;16.10;14.70;;;28.30;15.80;;;34.47;10.65;103158.22;4998431;28;20203;-55
2022/03/23 09:12:48;;;;;;;15.37;14.07;;;28.50;15.50;;;34.80;10.62;103154.09;4997058;28;20295;-51
2022/03/23 09:15:18;;;;;;;15.80;14.43;;;28.80;15.00;;;34.87;10.03;103164.75;4998910;28;20199;-51
2022/03/23 09:17:46;;;;;;;13.53;12.33;;;29.10;14.60;;;34.98;10.38;103155.38;4996585;28;20748;-52
2022/03/23 09:20:14;;;;;;;14.53;13.40;;;29.20;14.60;;;35.17;9.69;103156.44;4998272;28;20206;-54
2022/03/23 09:22:44;;;;;;;13.80;12.63;;;29.40;14.20;;;35.38;10.24;103158.78;4998354;28;20203;-54
2022/03/23 09:25:15;;;;;;;18.33;16.70;;;29.60;14.20;;;35.72;9.90;103160.81;4996608;28;20207;-52
2022/03/23 09:27:44;;;;;;;16.13;14.65;;;29.80;14.10;;;35.96;9.22;103161.72;5000884;28;20650;-51
2022/03/23 09:30:14;;;;;;;16.38;13.90;;;30.00;13.80;;;36.18;9.29;103164.06;4999891;28;20214;-53
2022/03/23 09:32:44;;;;;;;13.63;12.52;;;30.20;13.10;;;36.36;9.53;103160.56;5000066;28;20282;-53
2022/03/23 09:35:12;;;;;;;14.43;13.23;;;30.40;13.20;;;36.47;9.47;103157.47;5002131;28;20210;-51
2022/03/23 09:37:50;;;;;;;14.75;13.30;;;30.50;12.70;;;36.65;8.45;103154.00;5000703;28;20222;-53
2022/03/23 09:40:24;;;;;;;13.77;12.68;;;30.50;13.10;;;36.86;8.71;103157.31;4999291;28;20677;-57
2022/03/23 09:43:01;;;;;;;13.55;12.45;;;30.70;12.40;;;36.99;8.73;103158.56;5000207;28;20191;-52
2022/03/23 09:47:59;;;;;;;13.52;12.43;;;30.90;12.10;;;37.09;7.80;103148.25;5000774;28;20330;-53
2022/03/23 09:50:28;;;;;;;14.18;12.82;;;31.10;11.90;;;37.28;8.52;103146.34;5014574;28;20286;-54
2022/03/23 09:52:57;;;;;;;13.55;12.45;;;31.20;12.00;;;37.46;8.17;103146.69;4998801;28;20419;-59
2022/03/23 09:55:24;;;;;;;13.27;11.95;;;31.30;11.60;;;37.48;7.90;103145.28;5001102;28;20232;-53
2022/03/23 09:57:54;;;;;;;13.65;12.55;;;31.40;11.30;;;37.40;8.23;103143.19;5011098;28;20367;-54
2022/03/23 10:00:22;;;;;;;14.02;12.93;;;31.40;11.10;;;37.49;8.18;103157.09;5004787;28;20195;-54
2022/03/23 10:03:51;;;;;;;12.30;11.20;;;31.50;11.30;;;37.80;7.63;103148.06;5012173;28;20199;-51
2022/03/23 10:07:10;;;;;;;14.93;13.63;;;31.60;11.40;;;38.24;7.69;103147.63;4993081;28;20191;-54
2022/03/23 10:10:36;;;;;;;13.13;11.93;;;31.80;11.30;;;38.42;7.48;103144.00;4955981;28;20590;-53
2022/03/23 10:14:16;;;;;;;14.35;13.23;;;31.90;10.90;;;38.61;7.61;103146.66;5004191;28;20193;-54
2022/03/23 10:17:35;;;;;;;14.20;12.93;;;32.10;11.30;;;38.88;7.16;103148.63;5000746;28;20712;-54
2022/03/23 10:20:03;;;;;;;12.80;11.80;;;32.30;10.50;;;38.99;6.98;103136.25;5011015;28;20207;-50
2022/03/23 10:22:32;;;;;;;14.23;12.95;;;32.40;10.30;;;39.02;6.73;103144.72;4997840;28;20230;-54
2022/03/23 10:25:09;;;;;;;13.25;12.05;;;32.50;10.30;;;39.17;6.69;103143.63;5010998;28;20218;-55
2022/03/23 10:27:36;;;;;;;26.23;23.77;;;32.60;10.10;;;39.27;6.88;103146.16;4997626;28;20499;-53
2022/03/23 10:30:06;;;;;;;17.13;15.73;;;32.80;10.20;;;39.49;6.59;103140.66;4997557;28;20578;-55
2022/03/23 10:32:34;;;;;;;36.35;32.72;;;32.80;9.70;;;39.79;6.78;103142.72;5002133;28;20199;-51
2022/03/23 10:35:09;;;;;;;14.63;13.45;;;33.00;10.30;;;39.82;6.18;103135.75;5001662;28;20656;-54
2022/03/23 10:37:39;;;;;;;21.27;19.30;;;33.10;9.30;;;39.81;6.53;103137.69;5001024;28;20219;-57
2022/03/23 10:40:10;;;;;;;13.15;12.05;;;33.20;9.60;;;39.96;6.67;103143.97;5002527;28;20820;-56
2022/03/23 10:42:41;;;;;;;13.63;12.35;;;33.30;9.80;;;40.10;6.28;103137.25;5002888;28;20654;-52
2022/03/23 10:45:18;;;;;;;13.80;12.55;;;33.50;9.80;;;40.30;6.28;103135.88;5006569;28;20277;-52
2022/03/23 10:47:48;;;;;;;14.13;12.77;;;33.70;9.70;;;40.42;5.86;103133.34;5004590;28;20227;-53
2022/03/23 10:50:18;;;;;;;12.98;11.98;;;33.80;9.40;;;40.43;6.46;103121.16;5004063;28;20279;-52
2022/03/23 10:52:55;;;;;;;12.80;11.80;;;33.90;9.40;;;40.36;5.87;103127.16;4997998;28;20658;-54
2022/03/23 10:55:25;;;;;;;14.48;13.10;;;34.00;9.00;;;40.21;6.47;103124.78;5001073;28;20187;-54
2022/03/23 10:58:21;;;;;;;15.50;14.13;;;33.90;9.20;;;40.27;5.75;103122.72;5014366;28;20695;-53
2022/03/23 11:00:50;;;;;;;15.70;14.30;;;33.90;9.30;;;40.18;6.20;103116.31;5004523;28;20230;-53
2022/03/23 11:03:17;;;;;;;15.88;14.57;;;33.90;9.20;;;40.07;6.79;103113.03;4998512;28;20290;-52
2022/03/23 11:05:47;;;;;;;17.13;15.63;;;33.80;9.30;;;40.07;6.54;103118.56;5009152;28;20289;-52
2022/03/23 11:08:24;;;;;;;15.07;13.57;;;33.80;9.40;;;40.06;6.44;103116.13;5007196;28;20247;-52
2022/03/23 11:16:42;;;;;;;14.93;13.35;;;33.50;9.00;;;38.63;6.56;103114.91;4999913;28;20226;-52
2022/03/23 11:19:19;;;;;;;14.55;13.25;;;33.30;9.10;;;37.93;6.80;103105.22;5006810;28;20199;-52
2022/03/23 11:22:06;;;;;;;14.23;13.02;;;33.10;9.00;;;37.40;6.93;103101.13;5004223;28;20193;-58
2022/03/23 11:24:40;;;;;;;14.88;13.68;;;32.80;8.80;;;37.00;6.50;103100.56;4993531;28;20239;-54
2022/03/23 11:27:12;;;;;;;15.20;13.98;;;32.50;8.80;;;36.76;7.19;103099.75;5002345;28;20219;-55
2022/03/23 11:29:40;;;;;;;14.15;12.95;;;32.20;8.70;;;36.76;6.73;103099.75;5001545;28;20211;-54
2022/03/23 11:32:11;;;;;;;14.63;13.43;;;31.90;8.90;;;37.02;6.43;103095.59;5003744;28;20211;-54
2022/03/23 11:34:41;;;;;;;15.98;14.68;;;31.90;9.00;;;37.35;7.12;103095.69;5007919;28;20195;-54
2022/03/23 11:37:08;;;;;;;14.10;13.00;;;31.90;9.40;;;37.72;6.61;103093.72;5004972;28;20227;-53